sensor_id;sensor_type;location;lat;lon;timestamp;P1;durP1;ratioP1;P2;durP2;ratioP2
17461;SDS011;8848;50.810;4.790;2022-09-12T00:03:56;1.90;;;1.70;;
17461;SDS011;8848;50.810;4.790;2022-09-12T00:06:23;1.77;;;1.60;;
17461;SDS011;8848;50.810;4.790;2022-09-12T00:08:50;1.40;;;1.30;;
17461;SDS011;8848;50.810;4.790;2022-09-12T00:11:16;1.40;;;1.30;;
17461;SDS011;8848;50.810;4.790;2022-09-12T00:13:43;1.60;;;1.50;;
17461;SDS011;8848;50.810;4.790;2022-09-12T00:16:19;1.92;;;1.75;;
17461;SDS011;8848;50.810;4.790;2022-09-12T00:18:45;1.60;;;1.50;;
17461;SDS011;8848;50.810;4.790;2022-09-12T00:21:11;1.60;;;1.50;;
17461;SDS011;8848;50.810;4.790;2022-09-12T00:23:37;1.67;;;1.58;;
17461;SDS011;8848;50.810;4.790;2022-09-12T00:26:04;1.70;;;1.60;;
17461;SDS011;8848;50.810;4.790;2022-09-12T00:28:35;1.85;;;1.60;;
17461;SDS011;8848;50.810;4.790;2022-09-12T00:31:06;1.67;;;1.58;;
17461;SDS011;8848;50.810;4.790;2022-09-12T00:33:32;1.50;;;1.40;;
17461;SDS011;8848;50.810;4.790;2022-09-12T00:35:58;1.60;;;1.50;;
17461;SDS011;8848;50.810;4.790;2022-09-12T00:38:24;1.48;;;1.38;;
17461;SDS011;8848;50.810;4.790;2022-09-12T00:40:50;1.67;;;1.45;;
17461;SDS011;8848;50.810;4.790;2022-09-12T00:46:12;1.60;;;1.50;;
17461;SDS011;8848;50.810;4.790;2022-09-12T00:48:41;1.50;;;1.40;;
17461;SDS011;8848;50.810;4.790;2022-09-12T00:51:08;1.60;;;1.50;;
17461;SDS011;8848;50.810;4.790;2022-09-12T00:53:34;1.40;;;1.30;;
17461;SDS011;8848;50.810;4.790;2022-09-12T00:56:00;1.70;;;1.60;;
17461;SDS011;8848;50.810;4.790;2022-09-12T00:58:28;1.52;;;1.42;;
17461;SDS011;8848;50.810;4.790;2022-09-12T01:00:55;1.55;;;1.42;;
17461;SDS011;8848;50.810;4.790;2022-09-12T01:03:21;1.73;;;1.63;;
17461;SDS011;8848;50.810;4.790;2022-09-12T01:06:05;1.52;;;1.42;;
17461;SDS011;8848;50.810;4.790;2022-09-12T01:08:32;1.45;;;1.35;;
17461;SDS011;8848;50.810;4.790;2022-09-12T01:11:01;1.42;;;1.33;;
17461;SDS011;8848;50.810;4.790;2022-09-12T01:13:27;1.70;;;1.60;;
17461;SDS011;8848;50.810;4.790;2022-09-12T01:15:53;1.75;;;1.65;;
17461;SDS011;8848;50.810;4.790;2022-09-12T01:18:31;1.65;;;1.55;;
17461;SDS011;8848;50.810;4.790;2022-09-12T01:31:36;1.80;;;1.70;;
17461;SDS011;8848;50.810;4.790;2022-09-12T01:34:12;1.70;;;1.60;;
17461;SDS011;8848;50.810;4.790;2022-09-12T01:36:49;1.60;;;1.50;;
17461;SDS011;8848;50.810;4.790;2022-09-12T01:49:47;1.50;;;1.40;;
17461;SDS011;8848;50.810;4.790;2022-09-12T01:52:24;1.83;;;1.73;;
17461;SDS011;8848;50.810;4.790;2022-09-12T01:54:59;1.73;;;1.45;;
17461;SDS011;8848;50.810;4.790;2022-09-12T01:57:34;1.60;;;1.50;;
17461;SDS011;8848;50.810;4.790;2022-09-12T02:00:05;1.38;;;1.27;;
17461;SDS011;8848;50.810;4.790;2022-09-12T02:02:34;1.58;;;1.48;;
17461;SDS011;8848;50.810;4.790;2022-09-12T02:05:44;1.65;;;1.55;;
17461;SDS011;8848;50.810;4.790;2022-09-12T02:07:55;2.05;;;1.48;;
17461;SDS011;8848;50.810;4.790;2022-09-12T02:10:30;1.65;;;1.55;;
17461;SDS011;8848;50.810;4.790;2022-09-12T02:12:59;1.50;;;1.40;;
17461;SDS011;8848;50.810;4.790;2022-09-12T02:17:55;1.10;;;1.10;;
17461;SDS011;8848;50.810;4.790;2022-09-12T02:20:24;1.80;;;1.70;;
17461;SDS011;8848;50.810;4.790;2022-09-12T02:22:51;1.35;;;1.25;;
17461;SDS011;8848;50.810;4.790;2022-09-12T02:25:18;1.52;;;1.42;;
17461;SDS011;8848;50.810;4.790;2022-09-12T02:27:49;1.50;;;1.40;;
17461;SDS011;8848;50.810;4.790;2022-09-12T02:30:16;1.60;;;1.50;;
17461;SDS011;8848;50.810;4.790;2022-09-12T02:40:42;1.50;;;1.40;;
17461;SDS011;8848;50.810;4.790;2022-09-12T02:43:08;1.73;;;1.63;;
17461;SDS011;8848;50.810;4.790;2022-09-12T02:45:34;1.55;;;1.45;;
17461;SDS011;8848;50.810;4.790;2022-09-12T02:48:02;1.55;;;1.45;;
17461;SDS011;8848;50.810;4.790;2022-09-12T02:50:29;1.42;;;1.33;;
17461;SDS011;8848;50.810;4.790;2022-09-12T02:52:56;1.80;;;1.70;;
17461;SDS011;8848;50.810;4.790;2022-09-12T02:55:27;1.52;;;1.38;;
17461;SDS011;8848;50.810;4.790;2022-09-12T02:57:55;1.23;;;1.13;;
17461;SDS011;8848;50.810;4.790;2022-09-12T03:00:21;1.60;;;1.50;;
17461;SDS011;8848;50.810;4.790;2022-09-12T03:03:08;1.33;;;1.23;;
17461;SDS011;8848;50.810;4.790;2022-09-12T03:05:37;1.77;;;1.33;;
17461;SDS011;8848;50.810;4.790;2022-09-12T03:22:55;1.48;;;1.38;;
17461;SDS011;8848;50.810;4.790;2022-09-12T03:25:33;1.30;;;1.20;;
17461;SDS011;8848;50.810;4.790;2022-09-12T03:28:07;1.60;;;1.50;;
17461;SDS011;8848;50.810;4.790;2022-09-12T03:30:38;1.42;;;1.33;;
17461;SDS011;8848;50.810;4.790;2022-09-12T03:33:05;1.40;;;1.30;;
17461;SDS011;8848;50.810;4.790;2022-09-12T03:35:31;1.85;;;1.52;;
17461;SDS011;8848;50.810;4.790;2022-09-12T03:37:57;1.65;;;1.40;;
17461;SDS011;8848;50.810;4.790;2022-09-12T03:40:23;1.20;;;1.15;;
17461;SDS011;8848;50.810;4.790;2022-09-12T03:42:48;1.45;;;1.35;;
17461;SDS011;8848;50.810;4.790;2022-09-12T03:45:15;1.42;;;1.33;;
17461;SDS011;8848;50.810;4.790;2022-09-12T03:47:41;2.00;;;1.60;;
17461;SDS011;8848;50.810;4.790;2022-09-12T03:50:07;1.60;;;1.20;;
17461;SDS011;8848;50.810;4.790;2022-09-12T03:52:33;1.25;;;1.15;;
17461;SDS011;8848;50.810;4.790;2022-09-12T03:54:59;1.60;;;1.50;;
17461;SDS011;8848;50.810;4.790;2022-09-12T03:57:25;1.27;;;1.17;;
17461;SDS011;8848;50.810;4.790;2022-09-12T03:59:51;1.50;;;1.40;;
17461;SDS011;8848;50.810;4.790;2022-09-12T04:02:17;1.50;;;1.40;;
17461;SDS011;8848;50.810;4.790;2022-09-12T04:04:43;1.52;;;1.42;;
17461;SDS011;8848;50.810;4.790;2022-09-12T04:07:12;1.40;;;1.30;;
17461;SDS011;8848;50.810;4.790;2022-09-12T04:09:38;1.50;;;1.40;;
17461;SDS011;8848;50.810;4.790;2022-09-12T04:12:04;1.40;;;1.30;;
17461;SDS011;8848;50.810;4.790;2022-09-12T04:14:30;1.63;;;1.52;;
17461;SDS011;8848;50.810;4.790;2022-09-12T04:16:56;1.58;;;1.48;;
17461;SDS011;8848;50.810;4.790;2022-09-12T04:19:23;1.40;;;1.30;;
17461;SDS011;8848;50.810;4.790;2022-09-12T04:21:49;1.80;;;1.42;;
17461;SDS011;8848;50.810;4.790;2022-09-12T04:24:15;1.38;;;1.27;;
17461;SDS011;8848;50.810;4.790;2022-09-12T04:26:41;1.42;;;1.33;;
17461;SDS011;8848;50.810;4.790;2022-09-12T04:29:09;1.70;;;1.60;;
17461;SDS011;8848;50.810;4.790;2022-09-12T04:31:36;1.30;;;1.20;;
17461;SDS011;8848;50.810;4.790;2022-09-12T04:34:02;2.25;;;1.50;;
17461;SDS011;8848;50.810;4.790;2022-09-12T04:36:29;1.70;;;1.60;;
17461;SDS011;8848;50.810;4.790;2022-09-12T04:38:56;1.70;;;1.40;;
17461;SDS011;8848;50.810;4.790;2022-09-12T04:41:31;1.20;;;1.20;;
17461;SDS011;8848;50.810;4.790;2022-09-12T04:44:05;2.63;;;1.70;;
17461;SDS011;8848;50.810;4.790;2022-09-12T04:46:35;1.40;;;1.30;;
17461;SDS011;8848;50.810;4.790;2022-09-12T04:49:01;1.48;;;1.38;;
17461;SDS011;8848;50.810;4.790;2022-09-12T04:51:28;2.00;;;1.88;;
17461;SDS011;8848;50.810;4.790;2022-09-12T04:53:56;1.40;;;1.30;;
17461;SDS011;8848;50.810;4.790;2022-09-12T04:56:23;1.70;;;1.60;;
17461;SDS011;8848;50.810;4.790;2022-09-12T04:58:49;1.80;;;1.70;;
17461;SDS011;8848;50.810;4.790;2022-09-12T05:01:19;1.73;;;1.50;;
17461;SDS011;8848;50.810;4.790;2022-09-12T05:03:45;1.95;;;1.80;;
17461;SDS011;8848;50.810;4.790;2022-09-12T05:06:16;1.52;;;1.42;;
17461;SDS011;8848;50.810;4.790;2022-09-12T05:08:43;1.60;;;1.50;;
17461;SDS011;8848;50.810;4.790;2022-09-12T05:11:10;1.48;;;1.38;;
17461;SDS011;8848;50.810;4.790;2022-09-12T05:13:37;2.22;;;1.70;;
17461;SDS011;8848;50.810;4.790;2022-09-12T05:16:04;2.00;;;1.90;;
17461;SDS011;8848;50.810;4.790;2022-09-12T05:18:31;1.95;;;1.50;;
17461;SDS011;8848;50.810;4.790;2022-09-12T05:21:01;1.92;;;1.65;;
17461;SDS011;8848;50.810;4.790;2022-09-12T05:23:27;1.60;;;1.50;;
17461;SDS011;8848;50.810;4.790;2022-09-12T05:25:54;1.73;;;1.63;;
17461;SDS011;8848;50.810;4.790;2022-09-12T05:28:22;1.77;;;1.67;;
17461;SDS011;8848;50.810;4.790;2022-09-12T05:30:58;1.63;;;1.52;;
17461;SDS011;8848;50.810;4.790;2022-09-12T05:33:24;1.92;;;1.70;;
17461;SDS011;8848;50.810;4.790;2022-09-12T05:35:50;1.63;;;1.52;;
17461;SDS011;8848;50.810;4.790;2022-09-12T05:38:16;1.83;;;1.73;;
17461;SDS011;8848;50.810;4.790;2022-09-12T05:40:42;1.70;;;1.60;;
17461;SDS011;8848;50.810;4.790;2022-09-12T05:43:09;1.45;;;1.35;;
17461;SDS011;8848;50.810;4.790;2022-09-12T05:45:36;1.98;;;1.80;;
17461;SDS011;8848;50.810;4.790;2022-09-12T05:48:02;1.70;;;1.60;;
17461;SDS011;8848;50.810;4.790;2022-09-12T05:50:28;1.88;;;1.77;;
17461;SDS011;8848;50.810;4.790;2022-09-12T05:52:55;1.50;;;1.38;;
17461;SDS011;8848;50.810;4.790;2022-09-12T05:55:21;1.80;;;1.70;;
17461;SDS011;8848;50.810;4.790;2022-09-12T05:57:48;1.73;;;1.63;;
17461;SDS011;8848;50.810;4.790;2022-09-12T06:00:14;1.88;;;1.77;;
17461;SDS011;8848;50.810;4.790;2022-09-12T06:02:40;2.00;;;1.80;;
17461;SDS011;8848;50.810;4.790;2022-09-12T06:05:06;7.97;;;4.18;;
17461;SDS011;8848;50.810;4.790;2022-09-12T06:07:33;5.13;;;3.40;;
17461;SDS011;8848;50.810;4.790;2022-09-12T06:10:00;2.40;;;2.28;;
17461;SDS011;8848;50.810;4.790;2022-09-12T06:12:27;6.68;;;2.30;;
17461;SDS011;8848;50.810;4.790;2022-09-12T06:14:54;3.10;;;1.95;;
17461;SDS011;8848;50.810;4.790;2022-09-12T06:17:20;3.80;;;2.13;;
17461;SDS011;8848;50.810;4.790;2022-09-12T06:19:46;2.45;;;1.77;;
17461;SDS011;8848;50.810;4.790;2022-09-12T06:22:15;4.15;;;3.03;;
17461;SDS011;8848;50.810;4.790;2022-09-12T06:24:42;2.88;;;2.42;;
17461;SDS011;8848;50.810;4.790;2022-09-12T06:27:08;3.55;;;1.95;;
17461;SDS011;8848;50.810;4.790;2022-09-12T06:29:34;2.75;;;2.17;;
17461;SDS011;8848;50.810;4.790;2022-09-12T06:32:01;2.95;;;2.05;;
17461;SDS011;8848;50.810;4.790;2022-09-12T06:34:27;2.92;;;1.90;;
17461;SDS011;8848;50.810;4.790;2022-09-12T06:36:54;3.70;;;2.50;;
17461;SDS011;8848;50.810;4.790;2022-09-12T06:39:20;2.30;;;1.95;;
17461;SDS011;8848;50.810;4.790;2022-09-12T06:41:50;2.38;;;1.70;;
17461;SDS011;8848;50.810;4.790;2022-09-12T06:44:17;2.15;;;1.42;;
17461;SDS011;8848;50.810;4.790;2022-09-12T06:46:43;1.65;;;1.45;;
17461;SDS011;8848;50.810;4.790;2022-09-12T06:49:10;2.17;;;1.98;;
17461;SDS011;8848;50.810;4.790;2022-09-12T06:51:36;3.45;;;1.88;;
17461;SDS011;8848;50.810;4.790;2022-09-12T06:54:02;2.13;;;1.88;;
17461;SDS011;8848;50.810;4.790;2022-09-12T06:56:29;2.45;;;1.80;;
17461;SDS011;8848;50.810;4.790;2022-09-12T06:58:56;1.83;;;1.67;;
17461;SDS011;8848;50.810;4.790;2022-09-12T07:01:24;2.58;;;1.80;;
17461;SDS011;8848;50.810;4.790;2022-09-12T07:03:51;2.97;;;2.00;;
17461;SDS011;8848;50.810;4.790;2022-09-12T07:06:18;2.63;;;1.80;;
17461;SDS011;8848;50.810;4.790;2022-09-12T07:08:44;2.03;;;1.75;;
17461;SDS011;8848;50.810;4.790;2022-09-12T07:11:17;2.20;;;1.98;;
17461;SDS011;8848;50.810;4.790;2022-09-12T07:13:44;2.35;;;1.75;;
17461;SDS011;8848;50.810;4.790;2022-09-12T07:16:11;2.92;;;2.15;;
17461;SDS011;8848;50.810;4.790;2022-09-12T07:18:38;3.20;;;1.90;;
17461;SDS011;8848;50.810;4.790;2022-09-12T07:21:08;4.07;;;2.00;;
17461;SDS011;8848;50.810;4.790;2022-09-12T07:23:35;2.05;;;1.70;;
17461;SDS011;8848;50.810;4.790;2022-09-12T07:26:01;3.15;;;1.67;;
17461;SDS011;8848;50.810;4.790;2022-09-12T07:28:28;1.80;;;1.70;;
17461;SDS011;8848;50.810;4.790;2022-09-12T07:30:54;2.72;;;1.70;;
17461;SDS011;8848;50.810;4.790;2022-09-12T07:33:25;1.48;;;1.35;;
17461;SDS011;8848;50.810;4.790;2022-09-12T07:35:51;1.83;;;1.70;;
17461;SDS011;8848;50.810;4.790;2022-09-12T07:38:20;2.80;;;1.63;;
17461;SDS011;8848;50.810;4.790;2022-09-12T07:40:46;1.63;;;1.52;;
17461;SDS011;8848;50.810;4.790;2022-09-12T07:43:12;1.85;;;1.75;;
17461;SDS011;8848;50.810;4.790;2022-09-12T07:45:38;1.85;;;1.75;;
17461;SDS011;8848;50.810;4.790;2022-09-12T07:48:06;1.77;;;1.55;;
17461;SDS011;8848;50.810;4.790;2022-09-12T07:50:32;1.67;;;1.58;;
17461;SDS011;8848;50.810;4.790;2022-09-12T07:52:58;2.05;;;1.50;;
17461;SDS011;8848;50.810;4.790;2022-09-12T07:55:24;3.65;;;2.00;;
17461;SDS011;8848;50.810;4.790;2022-09-12T07:57:51;1.42;;;1.30;;
17461;SDS011;8848;50.810;4.790;2022-09-12T08:00:17;3.15;;;1.80;;
17461;SDS011;8848;50.810;4.790;2022-09-12T08:02:43;1.92;;;1.63;;
17461;SDS011;8848;50.810;4.790;2022-09-12T08:05:09;1.73;;;1.63;;
17461;SDS011;8848;50.810;4.790;2022-09-12T08:07:35;1.95;;;1.75;;
17461;SDS011;8848;50.810;4.790;2022-09-12T08:10:02;1.70;;;1.60;;
17461;SDS011;8848;50.810;4.790;2022-09-12T08:12:28;1.92;;;1.83;;
17461;SDS011;8848;50.810;4.790;2022-09-12T08:14:56;1.70;;;1.60;;
17461;SDS011;8848;50.810;4.790;2022-09-12T08:17:22;1.60;;;1.50;;
17461;SDS011;8848;50.810;4.790;2022-09-12T08:19:48;1.63;;;1.52;;
17461;SDS011;8848;50.810;4.790;2022-09-12T08:22:14;1.95;;;1.75;;
17461;SDS011;8848;50.810;4.790;2022-09-12T08:24:40;1.77;;;1.65;;
17461;SDS011;8848;50.810;4.790;2022-09-12T08:27:06;2.03;;;1.80;;
17461;SDS011;8848;50.810;4.790;2022-09-12T08:29:32;1.80;;;1.70;;
17461;SDS011;8848;50.810;4.790;2022-09-12T08:31:58;1.80;;;1.70;;
17461;SDS011;8848;50.810;4.790;2022-09-12T08:34:24;1.60;;;1.50;;
17461;SDS011;8848;50.810;4.790;2022-09-12T08:36:51;2.10;;;1.63;;
17461;SDS011;8848;50.810;4.790;2022-09-12T08:39:18;1.75;;;1.50;;
17461;SDS011;8848;50.810;4.790;2022-09-12T08:41:47;2.00;;;1.80;;
17461;SDS011;8848;50.810;4.790;2022-09-12T08:49:21;1.50;;;1.40;;
17461;SDS011;8848;50.810;4.790;2022-09-12T08:51:48;1.80;;;1.70;;
17461;SDS011;8848;50.810;4.790;2022-09-12T08:54:24;1.70;;;1.60;;
17461;SDS011;8848;50.810;4.790;2022-09-12T08:56:52;2.17;;;1.80;;
17461;SDS011;8848;50.810;4.790;2022-09-12T08:59:20;1.88;;;1.40;;
17461;SDS011;8848;50.810;4.790;2022-09-12T09:01:46;1.70;;;1.60;;
17461;SDS011;8848;50.810;4.790;2022-09-12T09:04:35;1.60;;;1.50;;
17461;SDS011;8848;50.810;4.790;2022-09-12T09:14:42;1.77;;;1.60;;
17461;SDS011;8848;50.810;4.790;2022-09-12T09:20:14;1.73;;;1.63;;
17461;SDS011;8848;50.810;4.790;2022-09-12T09:22:46;1.95;;;1.85;;
17461;SDS011;8848;50.810;4.790;2022-09-12T09:25:19;1.98;;;1.77;;
17461;SDS011;8848;50.810;4.790;2022-09-12T09:27:57;1.60;;;1.50;;
17461;SDS011;8848;50.810;4.790;2022-09-12T09:30:25;1.73;;;1.63;;
17461;SDS011;8848;50.810;4.790;2022-09-12T09:32:54;1.80;;;1.70;;
17461;SDS011;8848;50.810;4.790;2022-09-12T09:37:54;1.67;;;1.58;;
17461;SDS011;8848;50.810;4.790;2022-09-12T09:40:23;1.52;;;1.42;;
17461;SDS011;8848;50.810;4.790;2022-09-12T09:45:21;2.75;;;1.40;;
17461;SDS011;8848;50.810;4.790;2022-09-12T09:47:59;1.60;;;1.50;;
17461;SDS011;8848;50.810;4.790;2022-09-12T09:50:26;1.42;;;1.33;;
17461;SDS011;8848;50.810;4.790;2022-09-12T09:52:52;1.77;;;1.65;;
17461;SDS011;8848;50.810;4.790;2022-09-12T09:55:19;1.65;;;1.55;;
17461;SDS011;8848;50.810;4.790;2022-09-12T09:57:47;1.52;;;1.42;;
17461;SDS011;8848;50.810;4.790;2022-09-12T10:00:27;1.73;;;1.63;;
17461;SDS011;8848;50.810;4.790;2022-09-12T10:05:46;1.55;;;1.45;;
17461;SDS011;8848;50.810;4.790;2022-09-12T10:08:45;1.75;;;1.60;;
17461;SDS011;8848;50.810;4.790;2022-09-12T10:13:32;1.42;;;1.33;;
17461;SDS011;8848;50.810;4.790;2022-09-12T10:16:00;1.50;;;1.40;;
17461;SDS011;8848;50.810;4.790;2022-09-12T10:18:33;1.50;;;1.40;;
17461;SDS011;8848;50.810;4.790;2022-09-12T10:20:59;1.55;;;1.45;;
17461;SDS011;8848;50.810;4.790;2022-09-12T10:25:58;2.13;;;1.40;;
17461;SDS011;8848;50.810;4.790;2022-09-12T10:29:09;1.23;;;1.13;;
17461;SDS011;8848;50.810;4.790;2022-09-12T10:31:15;1.52;;;1.42;;
17461;SDS011;8848;50.810;4.790;2022-09-12T10:33:43;1.60;;;1.50;;
17461;SDS011;8848;50.810;4.790;2022-09-12T10:36:10;1.38;;;1.27;;
17461;SDS011;8848;50.810;4.790;2022-09-12T10:38:36;1.70;;;1.27;;
17461;SDS011;8848;50.810;4.790;2022-09-12T10:41:04;1.50;;;1.40;;
17461;SDS011;8848;50.810;4.790;2022-09-12T10:43:34;1.73;;;1.60;;
17461;SDS011;8848;50.810;4.790;2022-09-12T10:48:39;1.52;;;1.42;;
17461;SDS011;8848;50.810;4.790;2022-09-12T10:51:10;1.40;;;1.30;;
17461;SDS011;8848;50.810;4.790;2022-09-12T10:53:40;2.22;;;1.25;;
17461;SDS011;8848;50.810;4.790;2022-09-12T10:56:08;1.52;;;1.42;;
17461;SDS011;8848;50.810;4.790;2022-09-12T11:06:33;1.95;;;1.27;;
17461;SDS011;8848;50.810;4.790;2022-09-12T11:09:13;2.22;;;1.52;;
17461;SDS011;8848;50.810;4.790;2022-09-12T11:17:17;1.60;;;1.50;;
17461;SDS011;8848;50.810;4.790;2022-09-12T11:20:03;1.45;;;1.30;;
17461;SDS011;8848;50.810;4.790;2022-09-12T11:28:13;1.67;;;1.50;;
17461;SDS011;8848;50.810;4.790;2022-09-12T11:30:46;1.85;;;1.75;;
17461;SDS011;8848;50.810;4.790;2022-09-12T11:35:51;2.08;;;1.58;;
17461;SDS011;8848;50.810;4.790;2022-09-12T11:38:26;1.60;;;1.50;;
17461;SDS011;8848;50.810;4.790;2022-09-12T11:40:58;2.20;;;2.00;;
17461;SDS011;8848;50.810;4.790;2022-09-12T11:43:36;1.88;;;1.77;;
17461;SDS011;8848;50.810;4.790;2022-09-12T11:49:00;1.75;;;1.65;;
17461;SDS011;8848;50.810;4.790;2022-09-12T11:54:19;2.38;;;1.70;;
17461;SDS011;8848;50.810;4.790;2022-09-12T11:56:46;1.80;;;1.70;;
17461;SDS011;8848;50.810;4.790;2022-09-12T11:59:28;1.63;;;1.45;;
17461;SDS011;8848;50.810;4.790;2022-09-12T12:01:56;1.60;;;1.50;;
17461;SDS011;8848;50.810;4.790;2022-09-12T12:04:24;1.80;;;1.70;;
17461;SDS011;8848;50.810;4.790;2022-09-12T12:06:55;1.85;;;1.75;;
17461;SDS011;8848;50.810;4.790;2022-09-12T12:09:24;1.60;;;1.50;;
17461;SDS011;8848;50.810;4.790;2022-09-12T12:11:52;1.70;;;1.60;;
17461;SDS011;8848;50.810;4.790;2022-09-12T12:14:21;1.83;;;1.70;;
17461;SDS011;8848;50.810;4.790;2022-09-12T12:16:48;4.30;;;2.00;;
17461;SDS011;8848;50.810;4.790;2022-09-12T12:21:44;2.50;;;2.25;;
17461;SDS011;8848;50.810;4.790;2022-09-12T12:29:07;5.07;;;2.97;;
17461;SDS011;8848;50.810;4.790;2022-09-12T12:34:37;3.50;;;3.20;;
17461;SDS011;8848;50.810;4.790;2022-09-12T12:44:58;5.30;;;3.13;;
17461;SDS011;8848;50.810;4.790;2022-09-12T12:47:28;5.63;;;3.58;;
17461;SDS011;8848;50.810;4.790;2022-09-12T12:55:13;6.13;;;3.20;;
17461;SDS011;8848;50.810;4.790;2022-09-12T12:57:44;9.02;;;4.22;;
17461;SDS011;8848;50.810;4.790;2022-09-12T13:02:56;12.88;;;5.57;;
17461;SDS011;8848;50.810;4.790;2022-09-12T13:05:24;10.20;;;4.28;;
17461;SDS011;8848;50.810;4.790;2022-09-12T13:07:52;8.77;;;4.15;;
17461;SDS011;8848;50.810;4.790;2022-09-12T13:10:26;9.98;;;4.32;;
17461;SDS011;8848;50.810;4.790;2022-09-12T13:12:53;8.73;;;4.22;;
17461;SDS011;8848;50.810;4.790;2022-09-12T13:17:59;6.15;;;3.88;;
17461;SDS011;8848;50.810;4.790;2022-09-12T13:20:29;6.45;;;4.07;;
17461;SDS011;8848;50.810;4.790;2022-09-12T13:22:57;5.30;;;3.40;;
17461;SDS011;8848;50.810;4.790;2022-09-12T13:25:44;8.60;;;3.35;;
17461;SDS011;8848;50.810;4.790;2022-09-12T13:30:36;6.88;;;3.67;;
17461;SDS011;8848;50.810;4.790;2022-09-12T13:33:50;4.60;;;3.67;;
17461;SDS011;8848;50.810;4.790;2022-09-12T13:43:40;4.97;;;3.55;;
17461;SDS011;8848;50.810;4.790;2022-09-12T13:46:08;6.72;;;3.85;;
17461;SDS011;8848;50.810;4.790;2022-09-12T13:48:37;6.82;;;3.90;;
17461;SDS011;8848;50.810;4.790;2022-09-12T13:51:04;4.03;;;3.60;;
17461;SDS011;8848;50.810;4.790;2022-09-12T13:53:40;5.70;;;3.53;;
17461;SDS011;8848;50.810;4.790;2022-09-12T13:56:06;3.78;;;3.40;;
17461;SDS011;8848;50.810;4.790;2022-09-12T13:58:33;4.13;;;3.38;;
17461;SDS011;8848;50.810;4.790;2022-09-12T14:03:26;4.57;;;3.55;;
17461;SDS011;8848;50.810;4.790;2022-09-12T14:06:11;4.72;;;3.10;;
17461;SDS011;8848;50.810;4.790;2022-09-12T14:08:40;5.63;;;3.45;;
17461;SDS011;8848;50.810;4.790;2022-09-12T14:11:07;4.75;;;3.45;;
17461;SDS011;8848;50.810;4.790;2022-09-12T14:13:35;5.93;;;3.35;;
17461;SDS011;8848;50.810;4.790;2022-09-12T14:16:02;4.43;;;3.63;;
17461;SDS011;8848;50.810;4.790;2022-09-12T14:18:33;6.10;;;3.22;;
17461;SDS011;8848;50.810;4.790;2022-09-12T14:21:10;4.05;;;2.97;;
17461;SDS011;8848;50.810;4.790;2022-09-12T14:23:40;4.43;;;2.80;;
17461;SDS011;8848;50.810;4.790;2022-09-12T14:26:08;3.58;;;2.65;;
17461;SDS011;8848;50.810;4.790;2022-09-12T14:28:36;3.42;;;2.92;;
17461;SDS011;8848;50.810;4.790;2022-09-12T14:31:49;3.47;;;2.90;;
17461;SDS011;8848;50.810;4.790;2022-09-12T14:33:54;3.30;;;2.80;;
17461;SDS011;8848;50.810;4.790;2022-09-12T14:36:22;2.63;;;2.40;;
17461;SDS011;8848;50.810;4.790;2022-09-12T14:38:49;3.42;;;2.40;;
17461;SDS011;8848;50.810;4.790;2022-09-12T14:41:50;2.58;;;2.38;;
17461;SDS011;8848;50.810;4.790;2022-09-12T14:44:21;2.88;;;2.60;;
17461;SDS011;8848;50.810;4.790;2022-09-12T14:46:47;3.15;;;2.85;;
17461;SDS011;8848;50.810;4.790;2022-09-12T14:49:30;2.60;;;2.40;;
17461;SDS011;8848;50.810;4.790;2022-09-12T14:51:57;2.25;;;2.15;;
17461;SDS011;8848;50.810;4.790;2022-09-12T14:59:27;2.45;;;2.20;;
17461;SDS011;8848;50.810;4.790;2022-09-12T15:05:00;3.03;;;2.10;;
17461;SDS011;8848;50.810;4.790;2022-09-12T15:07:55;2.63;;;2.35;;
17461;SDS011;8848;50.810;4.790;2022-09-12T15:12:49;3.05;;;2.33;;
17461;SDS011;8848;50.810;4.790;2022-09-12T15:15:16;2.50;;;2.28;;
17461;SDS011;8848;50.810;4.790;2022-09-12T15:17:43;2.10;;;1.90;;
17461;SDS011;8848;50.810;4.790;2022-09-12T15:20:08;2.40;;;2.20;;
17461;SDS011;8848;50.810;4.790;2022-09-12T15:22:35;1.98;;;1.77;;
17461;SDS011;8848;50.810;4.790;2022-09-12T15:25:02;1.73;;;1.63;;
17461;SDS011;8848;50.810;4.790;2022-09-12T15:27:28;1.92;;;1.80;;
17461;SDS011;8848;50.810;4.790;2022-09-12T15:29:54;2.65;;;1.90;;
17461;SDS011;8848;50.810;4.790;2022-09-12T15:32:24;3.33;;;2.08;;
17461;SDS011;8848;50.810;4.790;2022-09-12T15:34:50;2.30;;;2.10;;
17461;SDS011;8848;50.810;4.790;2022-09-12T15:37:16;3.05;;;2.08;;
17461;SDS011;8848;50.810;4.790;2022-09-12T15:39:43;1.95;;;1.83;;
17461;SDS011;8848;50.810;4.790;2022-09-12T15:42:10;2.00;;;1.75;;
17461;SDS011;8848;50.810;4.790;2022-09-12T15:44:36;1.80;;;1.70;;
17461;SDS011;8848;50.810;4.790;2022-09-12T15:47:03;2.95;;;2.05;;
17461;SDS011;8848;50.810;4.790;2022-09-12T15:49:29;1.90;;;1.77;;
17461;SDS011;8848;50.810;4.790;2022-09-12T15:51:55;1.67;;;1.55;;
17461;SDS011;8848;50.810;4.790;2022-09-12T15:54:21;4.07;;;1.85;;
17461;SDS011;8848;50.810;4.790;2022-09-12T15:56:47;2.38;;;1.92;;
17461;SDS011;8848;50.810;4.790;2022-09-12T15:59:13;1.95;;;1.77;;
17461;SDS011;8848;50.810;4.790;2022-09-12T16:01:39;2.35;;;2.10;;
17461;SDS011;8848;50.810;4.790;2022-09-12T16:04:20;2.17;;;1.70;;
17461;SDS011;8848;50.810;4.790;2022-09-12T16:06:47;2.55;;;2.10;;
17461;SDS011;8848;50.810;4.790;2022-09-12T16:09:13;2.35;;;1.75;;
17461;SDS011;8848;50.810;4.790;2022-09-12T16:11:39;2.10;;;1.60;;
17461;SDS011;8848;50.810;4.790;2022-09-12T16:14:05;2.33;;;2.05;;
17461;SDS011;8848;50.810;4.790;2022-09-12T16:16:31;2.25;;;1.88;;
17461;SDS011;8848;50.810;4.790;2022-09-12T16:18:57;3.63;;;1.80;;
17461;SDS011;8848;50.810;4.790;2022-09-12T16:21:23;2.10;;;1.85;;
17461;SDS011;8848;50.810;4.790;2022-09-12T16:23:50;1.85;;;1.65;;
17461;SDS011;8848;50.810;4.790;2022-09-12T16:26:16;2.17;;;1.88;;
17461;SDS011;8848;50.810;4.790;2022-09-12T16:28:43;4.53;;;1.90;;
17461;SDS011;8848;50.810;4.790;2022-09-12T16:31:10;2.90;;;1.70;;
17461;SDS011;8848;50.810;4.790;2022-09-12T16:33:37;2.72;;;1.85;;
17461;SDS011;8848;50.810;4.790;2022-09-12T16:36:07;2.35;;;1.75;;
17461;SDS011;8848;50.810;4.790;2022-09-12T16:38:34;1.90;;;1.70;;
17461;SDS011;8848;50.810;4.790;2022-09-12T16:41:05;2.05;;;1.70;;
17461;SDS011;8848;50.810;4.790;2022-09-12T16:43:32;2.20;;;1.75;;
17461;SDS011;8848;50.810;4.790;2022-09-12T16:48:40;1.90;;;1.70;;
17461;SDS011;8848;50.810;4.790;2022-09-12T16:51:06;2.28;;;1.65;;
17461;SDS011;8848;50.810;4.790;2022-09-12T16:53:33;2.17;;;1.90;;
17461;SDS011;8848;50.810;4.790;2022-09-12T16:56:00;2.20;;;1.80;;
17461;SDS011;8848;50.810;4.790;2022-09-12T16:58:26;1.92;;;1.70;;
17461;SDS011;8848;50.810;4.790;2022-09-12T17:01:02;2.42;;;2.00;;
17461;SDS011;8848;50.810;4.790;2022-09-12T17:03:29;1.90;;;1.80;;
17461;SDS011;8848;50.810;4.790;2022-09-12T17:06:02;2.65;;;1.90;;
17461;SDS011;8848;50.810;4.790;2022-09-12T17:08:28;4.93;;;1.83;;
17461;SDS011;8848;50.810;4.790;2022-09-12T17:11:01;1.98;;;1.70;;
17461;SDS011;8848;50.810;4.790;2022-09-12T17:13:28;2.00;;;1.80;;
17461;SDS011;8848;50.810;4.790;2022-09-12T17:15:54;1.80;;;1.58;;
17461;SDS011;8848;50.810;4.790;2022-09-12T17:18:20;2.05;;;1.85;;
17461;SDS011;8848;50.810;4.790;2022-09-12T17:20:46;1.65;;;1.55;;
17461;SDS011;8848;50.810;4.790;2022-09-12T17:23:12;1.58;;;1.42;;
17461;SDS011;8848;50.810;4.790;2022-09-12T17:25:38;1.80;;;1.30;;
17461;SDS011;8848;50.810;4.790;2022-09-12T17:28:04;1.50;;;1.40;;
17461;SDS011;8848;50.810;4.790;2022-09-12T17:30:34;1.80;;;1.70;;
17461;SDS011;8848;50.810;4.790;2022-09-12T17:33:00;2.53;;;1.65;;
17461;SDS011;8848;50.810;4.790;2022-09-12T17:35:26;2.60;;;1.67;;
17461;SDS011;8848;50.810;4.790;2022-09-12T17:37:52;2.50;;;1.50;;
17461;SDS011;8848;50.810;4.790;2022-09-12T17:40:19;1.77;;;1.55;;
17461;SDS011;8848;50.810;4.790;2022-09-12T17:42:45;2.25;;;1.63;;
17461;SDS011;8848;50.810;4.790;2022-09-12T17:45:11;1.55;;;1.45;;
17461;SDS011;8848;50.810;4.790;2022-09-12T17:47:38;1.65;;;1.55;;
17461;SDS011;8848;50.810;4.790;2022-09-12T17:50:04;2.67;;;1.60;;
17461;SDS011;8848;50.810;4.790;2022-09-12T17:52:31;1.83;;;1.70;;
17461;SDS011;8848;50.810;4.790;2022-09-12T17:54:57;2.00;;;1.90;;